createdAt,value
2022-07-28T00:00:41.183Z,11.27
2022-07-28T00:01:41.402Z,11.27
2022-07-28T00:02:41.568Z,11.25
2022-07-28T00:03:40.155Z,11.23
2022-07-28T00:04:42.343Z,11.22
2022-07-28T00:05:42.485Z,11.22
2022-07-28T00:06:42.661Z,11.23
2022-07-28T00:07:42.838Z,11.22
2022-07-28T00:08:43.520Z,11.19
2022-07-28T00:09:43.676Z,11.18
2022-07-28T00:10:43.862Z,11.14
2022-07-28T00:11:54.915Z,11.12
2022-07-28T00:12:43.836Z,11.11
2022-07-28T00:13:45.023Z,11.11
2022-07-28T00:14:43.390Z,11.08
2022-07-28T00:15:45.567Z,11.05
2022-07-28T00:16:43.987Z,11.02
2022-07-28T00:17:44.183Z,10.99
2022-07-28T00:18:44.481Z,10.99
2022-07-28T00:19:44.763Z,10.99
2022-07-28T00:20:46.932Z,10.99
2022-07-28T00:21:45.307Z,10.96
2022-07-28T00:22:47.485Z,10.97
2022-07-28T00:23:47.671Z,10.97
2022-07-28T00:24:46.164Z,11.00
2022-07-28T00:25:48.331Z,11.00
2022-07-28T00:26:48.495Z,10.97
2022-07-28T00:27:48.694Z,10.96
2022-07-28T00:28:48.842Z,10.92
2022-07-28T00:29:50.942Z,10.89
2022-07-28T00:30:47.815Z,10.89
2022-07-28T00:31:48.149Z,10.89
2022-07-28T00:32:50.305Z,10.90
2022-07-28T00:33:48.689Z,10.87
2022-07-28T00:34:48.983Z,10.90
2022-07-28T00:35:49.334Z,10.82
2022-07-28T00:36:51.506Z,10.78
2022-07-28T00:37:51.706Z,10.74
2022-07-28T00:38:51.854Z,10.71
2022-07-28T00:39:50.434Z,10.64
2022-07-28T00:40:50.726Z,10.61
2022-07-28T00:41:51.019Z,10.59
2022-07-28T00:42:51.324Z,10.57
2022-07-28T00:43:53.506Z,10.51
2022-07-28T00:44:51.877Z,10.44
2022-07-28T00:45:52.164Z,10.37
2022-07-28T00:46:52.507Z,10.33
2022-07-28T00:47:52.727Z,10.22
2022-07-28T00:48:54.970Z,10.15
2022-07-28T00:49:53.340Z,10.05
2022-07-28T00:50:55.519Z,9.94
2022-07-28T00:51:53.895Z,9.82
2022-07-28T00:52:57.526Z,9.72
2022-07-28T00:53:56.250Z,9.61
2022-07-28T00:54:57.861Z,9.59
2022-07-28T00:56:05.601Z,9.56
2022-07-28T00:56:57.198Z,9.56
2022-07-28T00:57:58.893Z,9.55
2022-07-28T00:58:57.608Z,9.50
2022-07-28T00:59:56.112Z,9.47
2022-07-28T01:00:57.443Z,9.44
2022-07-28T01:01:56.755Z,9.41
2022-07-28T01:02:58.871Z,9.41
2022-07-28T01:03:59.028Z,9.39
2022-07-28T01:04:57.518Z,9.39
2022-07-28T01:06:01.188Z,9.34
2022-07-28T01:06:58.057Z,9.26
2022-07-28T01:08:01.705Z,9.21
2022-07-28T01:08:59.492Z,9.18
2022-07-28T01:09:59.908Z,9.16
2022-07-28T01:11:01.179Z,9.08
2022-07-28T01:12:01.362Z,9.11
2022-07-28T01:13:01.548Z,9.14
2022-07-28T01:14:01.720Z,9.21
2022-07-28T01:15:02.412Z,9.29
2022-07-28T01:16:02.682Z,9.46
2022-07-28T01:17:02.054Z,9.61
2022-07-28T01:18:03.220Z,9.69
2022-07-28T01:19:01.617Z,9.77
2022-07-28T01:20:01.901Z,9.82
2022-07-28T01:21:02.205Z,9.83
2022-07-28T01:22:02.603Z,9.87
2022-07-28T01:23:04.686Z,9.89
2022-07-28T01:24:03.091Z,9.95
2022-07-28T01:25:05.282Z,9.98
2022-07-28T01:26:03.665Z,9.99
2022-07-28T01:27:03.983Z,10.02
2022-07-28T01:28:06.163Z,10.04
2022-07-28T01:29:04.545Z,10.04
2022-07-28T01:30:06.721Z,9.98
2022-07-28T01:31:07.011Z,9.91
2022-07-28T01:32:07.128Z,9.84
2022-07-28T01:33:07.273Z,9.80
2022-07-28T01:34:07.948Z,9.74
2022-07-28T01:35:07.233Z,9.65
2022-07-28T01:36:06.604Z,9.59
2022-07-28T01:37:08.794Z,9.59
2022-07-28T01:38:09.680Z,9.56
2022-07-28T01:39:08.365Z,9.55
2022-07-28T01:40:08.535Z,9.50
2022-07-28T01:41:08.030Z,9.51
2022-07-28T01:42:10.255Z,9.54
2022-07-28T01:43:08.631Z,9.54
2022-07-28T01:44:08.894Z,9.56
2022-07-28T01:45:11.079Z,9.59
2022-07-28T01:46:09.467Z,9.61
2022-07-28T01:47:11.609Z,9.62
2022-07-28T01:48:09.984Z,9.59
2022-07-28T01:49:12.197Z,9.50
2022-07-28T01:50:10.558Z,9.41
2022-07-28T01:51:10.859Z,9.31
2022-07-28T01:52:11.171Z,9.25
2022-07-28T01:53:11.470Z,9.21
2022-07-28T01:54:13.830Z,9.16
2022-07-28T01:55:13.847Z,9.16
2022-07-28T01:56:12.339Z,9.16
2022-07-28T01:57:12.649Z,9.16
2022-07-28T01:58:14.808Z,9.31
2022-07-28T01:59:15.007Z,9.48
2022-07-28T02:00:15.244Z,9.56
2022-07-28T02:01:15.501Z,9.58
2022-07-28T02:02:14.086Z,9.61
2022-07-28T02:03:16.246Z,9.65
2022-07-28T02:04:14.761Z,9.73
2022-07-28T02:05:14.957Z,9.77
2022-07-28T02:06:17.057Z,9.86
2022-07-28T02:07:15.572Z,9.94
2022-07-28T02:08:17.748Z,9.97
2022-07-28T02:09:16.125Z,9.98
2022-07-28T02:10:18.297Z,10.05
2022-07-28T02:11:16.682Z,10.13
2022-07-28T02:12:16.987Z,10.22
2022-07-28T02:13:19.290Z,10.31
2022-07-28T02:14:18.133Z,10.35
2022-07-28T02:15:19.735Z,10.38
2022-07-28T02:16:18.176Z,10.42
2022-07-28T02:17:18.370Z,10.49
2022-07-28T02:18:18.669Z,10.53
2022-07-28T02:19:18.982Z,10.56
2022-07-28T02:20:21.159Z,10.63
2022-07-28T02:21:19.564Z,10.64
2022-07-28T02:22:19.894Z,10.71
2022-07-28T02:23:20.201Z,10.75
2022-07-28T02:24:20.513Z,10.81
2022-07-28T02:25:22.688Z,10.84
2022-07-28T02:26:21.061Z,10.89
2022-07-28T02:27:21.373Z,10.92
2022-07-28T02:28:21.668Z,10.97
2022-07-28T02:29:49.328Z,10.99
2022-07-28T02:30:25.022Z,11.04
2022-07-28T02:31:22.640Z,11.07
2022-07-28T02:32:28.200Z,11.08
2022-07-28T02:33:29.574Z,11.10
2022-07-28T02:34:27.879Z,11.08
2022-07-28T02:35:25.578Z,11.04
2022-07-28T02:36:23.986Z,11.02
2022-07-28T02:37:24.301Z,11.08
2022-07-28T02:38:24.605Z,11.14
2022-07-28T02:39:26.823Z,11.18
2022-07-28T02:40:27.005Z,11.23
2022-07-28T02:41:25.510Z,11.27
2022-07-28T02:42:25.811Z,11.29
2022-07-28T02:43:26.120Z,11.32
2022-07-28T02:44:27.446Z,11.33
2022-07-28T02:45:26.689Z,11.33
2022-07-28T02:46:28.903Z,11.35
2022-07-28T02:47:27.263Z,11.37
2022-07-28T02:48:29.443Z,11.41
2022-07-28T02:49:27.824Z,11.44
2022-07-28T02:50:31.456Z,11.44
2022-07-28T02:51:28.366Z,11.45
2022-07-28T02:52:29.555Z,11.45
2022-07-28T02:53:32.377Z,11.44
2022-07-28T02:54:30.118Z,11.40
2022-07-28T02:55:31.460Z,11.37
2022-07-28T02:56:30.694Z,11.33
2022-07-28T02:57:30.079Z,11.35
2022-07-28T02:58:32.249Z,11.37
2022-07-28T02:59:30.642Z,11.44
2022-07-28T03:00:30.955Z,11.48
2022-07-28T03:01:34.624Z,11.50
2022-07-28T03:02:31.501Z,11.54
2022-07-28T03:03:35.148Z,11.55
2022-07-28T03:04:32.993Z,11.57
2022-07-28T03:05:33.466Z,11.59
2022-07-28T03:06:34.554Z,11.60
2022-07-28T03:07:33.990Z,11.59
2022-07-28T03:08:35.115Z,11.59
2022-07-28T03:09:34.302Z,11.57
2022-07-28T03:10:35.677Z,11.59
2022-07-28T03:11:35.831Z,11.59
2022-07-28T03:12:34.391Z,11.62
2022-07-28T03:13:34.578Z,11.63
2022-07-28T03:14:34.894Z,11.63
2022-07-28T03:15:37.084Z,11.66
2022-07-28T03:16:35.490Z,11.68
2022-07-28T03:17:37.636Z,11.69
2022-07-28T03:18:37.828Z,11.72
2022-07-28T03:19:36.446Z,11.75
2022-07-28T03:20:38.502Z,11.77
2022-07-28T03:21:36.906Z,11.77
2022-07-28T03:22:38.176Z,11.77
2022-07-28T03:23:38.613Z,11.78
2022-07-28T03:24:38.752Z,11.78
2022-07-28T03:25:40.102Z,11.75
2022-07-28T03:26:40.278Z,11.75
2022-07-28T03:27:38.695Z,11.72
2022-07-28T03:28:39.027Z,11.69
2022-07-28T03:29:39.366Z,11.68
2022-07-28T03:30:40.673Z,11.70
2022-07-28T03:31:40.740Z,11.73
2022-07-28T03:32:43.883Z,11.78
2022-07-28T03:33:42.119Z,11.83
2022-07-28T03:34:42.800Z,11.86
2022-07-28T03:35:42.993Z,11.90
2022-07-28T03:36:43.168Z,11.94
2022-07-28T03:37:45.331Z,12.00
2022-07-28T03:38:42.128Z,12.02
2022-07-28T03:39:44.322Z,12.02
2022-07-28T03:40:46.233Z,12.03
2022-07-28T03:41:43.011Z,12.06
2022-07-28T03:42:45.243Z,12.07
2022-07-28T03:43:45.389Z,12.10
2022-07-28T03:44:45.562Z,12.10
2022-07-28T03:45:46.852Z,12.10
2022-07-28T03:46:46.434Z,12.10
2022-07-28T03:47:46.610Z,12.12
2022-07-28T03:48:46.803Z,12.10
2022-07-28T03:49:45.446Z,12.10
2022-07-28T03:50:47.611Z,12.06
2022-07-28T03:51:46.020Z,12.02
2022-07-28T03:52:48.201Z,12.02
2022-07-28T03:53:46.609Z,11.97
2022-07-28T03:54:48.784Z,11.95
2022-07-28T03:55:48.979Z,11.97
2022-07-28T03:56:47.496Z,11.97
2022-07-28T03:57:47.905Z,11.97
2022-07-28T03:58:48.113Z,11.99
2022-07-28T03:59:50.265Z,12.02
2022-07-28T04:00:50.520Z,12.07
2022-07-28T04:01:49.038Z,12.10
2022-07-28T04:02:49.351Z,12.13
2022-07-28T04:03:49.526Z,12.17
2022-07-28T04:04:49.752Z,12.18
2022-07-28T04:05:50.100Z,12.21
2022-07-28T04:06:52.273Z,12.22
2022-07-28T04:07:52.437Z,12.25
2022-07-28T04:08:52.597Z,12.28
2022-07-28T04:09:52.760Z,12.29
2022-07-28T04:10:51.430Z,12.32
2022-07-28T04:11:53.596Z,12.32
2022-07-28T04:12:53.755Z,12.35
2022-07-28T04:13:52.294Z,12.36
2022-07-28T04:14:52.634Z,12.37
2022-07-28T04:15:52.869Z,12.39
2022-07-28T04:16:55.115Z,12.39
2022-07-28T04:17:55.224Z,12.40
2022-07-28T04:18:53.632Z,12.42
2022-07-28T04:19:53.981Z,12.43
2022-07-28T04:20:56.160Z,12.46
2022-07-28T04:21:56.342Z,12.47
2022-07-28T04:22:56.527Z,12.49
2022-07-28T04:23:59.804Z,12.50
2022-07-28T04:24:56.287Z,12.50
2022-07-28T04:25:57.480Z,12.54
2022-07-28T04:26:57.655Z,12.60
2022-07-28T04:27:57.841Z,12.62
2022-07-28T04:28:56.503Z,12.68
2022-07-28T04:29:56.848Z,12.73
2022-07-28T04:30:59.101Z,12.78
2022-07-28T04:31:59.213Z,12.79
2022-07-28T04:32:57.642Z,12.80
2022-07-28T04:33:57.868Z,12.79
2022-07-28T04:34:58.092Z,12.82
2022-07-28T04:36:01.752Z,12.82
2022-07-28T04:37:00.465Z,12.85
2022-07-28T04:38:00.656Z,12.86
2022-07-28T04:39:00.850Z,12.87
2022-07-28T04:39:59.631Z,12.93
2022-07-28T04:41:01.814Z,12.94
2022-07-28T04:42:00.126Z,12.97
2022-07-28T04:43:02.290Z,13.00
2022-07-28T04:44:00.587Z,13.05
2022-07-28T04:45:00.817Z,13.11
2022-07-28T04:46:01.121Z,13.15
2022-07-28T04:47:03.216Z,13.18
2022-07-28T04:48:03.391Z,13.20
2022-07-28T04:49:01.899Z,13.23
2022-07-28T04:50:02.151Z,13.23
2022-07-28T04:51:02.379Z,13.22
2022-07-28T04:52:04.533Z,13.22
2022-07-28T04:53:04.712Z,13.23
2022-07-28T04:54:03.261Z,13.27
2022-07-28T04:55:03.483Z,13.30
2022-07-28T04:56:07.135Z,13.30
2022-07-28T04:57:10.246Z,13.33
2022-07-28T04:58:06.089Z,13.35
2022-07-28T04:59:06.325Z,13.37
2022-07-28T05:00:06.396Z,13.38
2022-07-28T05:01:06.204Z,13.39
2022-07-28T05:02:06.309Z,13.39
2022-07-28T05:03:07.642Z,13.39
2022-07-28T05:04:06.915Z,13.42
2022-07-28T05:05:07.098Z,13.46
2022-07-28T05:06:06.499Z,13.47
2022-07-28T05:07:12.763Z,13.47
2022-07-28T05:08:07.029Z,13.47
2022-07-28T05:09:10.659Z,13.50
2022-07-28T05:10:09.370Z,13.53
2022-07-28T05:11:09.562Z,13.56
2022-07-28T05:12:10.238Z,13.62
2022-07-28T05:13:08.656Z,13.71
2022-07-28T05:14:12.658Z,13.75
2022-07-28T05:15:10.176Z,13.78
2022-07-28T05:16:10.628Z,13.79
2022-07-28T05:17:11.764Z,13.79
2022-07-28T05:18:10.214Z,13.85
2022-07-28T05:19:12.397Z,13.86
2022-07-28T05:20:12.568Z,13.89
2022-07-28T05:21:11.105Z,13.95
2022-07-28T05:22:11.406Z,14.03
2022-07-28T05:23:13.592Z,14.08
2022-07-28T05:24:14.089Z,14.11
2022-07-28T05:25:13.908Z,14.17
2022-07-28T05:26:14.602Z,14.22
2022-07-28T05:27:14.777Z,14.30
2022-07-28T05:28:14.946Z,14.37
2022-07-28T05:29:13.493Z,14.43
2022-07-28T05:30:15.672Z,14.43
2022-07-28T05:31:15.906Z,14.41
2022-07-28T05:32:17.220Z,14.45
2022-07-28T05:33:14.604Z,14.51
2022-07-28T05:34:15.339Z,14.59
2022-07-28T05:35:15.058Z,14.65
2022-07-28T05:36:17.242Z,14.66
2022-07-28T05:37:15.673Z,14.70
2022-07-28T05:38:15.889Z,14.78
2022-07-28T05:39:18.074Z,14.78
2022-07-28T05:40:18.255Z,14.82
2022-07-28T05:41:18.435Z,14.86
2022-07-28T05:42:19.089Z,14.92
2022-07-28T05:43:19.262Z,14.94
2022-07-28T05:44:19.443Z,14.97
2022-07-28T05:45:18.070Z,14.97
2022-07-28T05:46:20.302Z,14.99
2022-07-28T05:47:20.351Z,15.03
2022-07-28T05:48:20.522Z,15.09
2022-07-28T05:49:20.787Z,15.14
2022-07-28T05:50:20.882Z,15.18
2022-07-28T05:51:21.070Z,15.22
2022-07-28T05:52:21.749Z,15.25
2022-07-28T05:53:20.177Z,15.33
2022-07-28T05:54:22.355Z,15.37
2022-07-28T05:55:22.547Z,15.42
2022-07-28T05:56:20.965Z,15.36
2022-07-28T05:57:23.164Z,15.39
2022-07-28T05:58:22.355Z,15.42
2022-07-28T05:59:23.534Z,15.44
2022-07-28T06:00:22.106Z,15.46
2022-07-28T06:01:22.473Z,15.52
2022-07-28T06:02:24.540Z,15.61
2022-07-28T06:03:24.694Z,15.67
2022-07-28T06:04:27.943Z,15.76
2022-07-28T06:05:24.372Z,15.80
2022-07-28T06:06:23.668Z,15.79
2022-07-28T06:07:23.899Z,15.82
2022-07-28T06:08:25.198Z,15.84
2022-07-28T06:09:24.377Z,15.86
2022-07-28T06:10:26.555Z,15.83
2022-07-28T06:11:28.199Z,15.82
2022-07-28T06:12:25.955Z,15.76
2022-07-28T06:13:29.290Z,15.77
2022-07-28T06:14:25.621Z,15.84
2022-07-28T06:15:27.789Z,15.84
2022-07-28T06:16:28.010Z,15.82
2022-07-28T06:17:26.422Z,15.80
2022-07-28T06:18:28.602Z,15.84
2022-07-28T06:19:28.780Z,15.86
2022-07-28T06:20:27.273Z,15.86
2022-07-28T06:21:27.560Z,15.98
2022-07-28T06:22:27.796Z,16.02
2022-07-28T06:23:29.986Z,16.09
2022-07-28T06:24:30.158Z,16.13
2022-07-28T06:25:28.624Z,16.15
2022-07-28T06:26:30.773Z,16.16
2022-07-28T06:27:29.082Z,16.17
2022-07-28T06:28:31.276Z,16.21
2022-07-28T06:29:29.573Z,16.26
2022-07-28T06:30:29.807Z,16.32
2022-07-28T06:31:32.027Z,16.39
2022-07-28T06:32:30.289Z,16.43
2022-07-28T06:33:30.531Z,16.31
2022-07-28T06:34:32.711Z,16.31
2022-07-28T06:35:31.020Z,16.35
2022-07-28T06:36:34.206Z,16.39
2022-07-28T06:37:31.535Z,16.42
2022-07-28T06:38:32.674Z,16.47
2022-07-28T06:39:34.014Z,16.54
2022-07-28T06:40:32.451Z,16.61
2022-07-28T06:41:32.691Z,16.57
2022-07-28T06:42:32.927Z,16.61
2022-07-28T06:43:38.310Z,16.47
2022-07-28T06:44:57.280Z,16.43
2022-07-28T06:45:34.765Z,16.47
2022-07-28T06:46:35.012Z,16.50
2022-07-28T06:47:36.159Z,16.56
2022-07-28T06:48:36.636Z,16.66
2022-07-28T06:49:35.037Z,16.56
2022-07-28T06:50:35.279Z,16.47
2022-07-28T06:51:38.240Z,16.47
2022-07-28T06:52:37.637Z,16.43
2022-07-28T06:53:36.865Z,16.46
2022-07-28T06:54:36.416Z,16.46
2022-07-28T06:55:36.706Z,16.57
2022-07-28T06:56:38.877Z,16.61
2022-07-28T06:57:37.218Z,16.50
2022-07-28T06:58:40.494Z,16.57
2022-07-28T06:59:37.679Z,16.69
2022-07-28T07:00:39.922Z,16.61
2022-07-28T07:01:38.186Z,16.66
2022-07-28T07:02:40.371Z,16.64
2022-07-28T07:03:39.489Z,16.68
2022-07-28T07:04:38.960Z,16.68
2022-07-28T07:05:39.164Z,16.64
2022-07-28T07:06:41.341Z,16.71
2022-07-28T07:07:43.037Z,16.66
2022-07-28T07:08:41.931Z,16.72
2022-07-28T07:09:40.237Z,16.76
2022-07-28T07:10:42.402Z,16.86
2022-07-28T07:11:40.707Z,16.89
2022-07-28T07:12:41.037Z,17.01
2022-07-28T07:13:45.075Z,17.04
2022-07-28T07:14:41.527Z,17.08
2022-07-28T07:15:43.714Z,17.09
2022-07-28T07:16:42.885Z,17.14
2022-07-28T07:17:43.263Z,17.01
2022-07-28T07:18:42.609Z,17.01
2022-07-28T07:19:43.844Z,16.84
2022-07-28T07:20:45.023Z,16.72
2022-07-28T07:21:43.466Z,16.81
2022-07-28T07:22:44.578Z,16.83
2022-07-28T07:23:47.905Z,16.96
2022-07-28T07:24:46.190Z,17.06
2022-07-28T07:25:45.317Z,16.91
2022-07-28T07:26:46.684Z,16.93
2022-07-28T07:27:44.994Z,16.99
2022-07-28T07:28:49.190Z,17.12
2022-07-28T07:29:48.867Z,17.19
2022-07-28T07:30:46.630Z,17.22
2022-07-28T07:31:48.011Z,17.02
2022-07-28T07:32:48.225Z,17.06
2022-07-28T07:33:48.146Z,17.19
2022-07-28T07:34:48.761Z,17.04
2022-07-28T07:35:47.937Z,17.06
2022-07-28T07:36:49.289Z,17.08
2022-07-28T07:37:48.516Z,17.12
2022-07-28T07:38:51.255Z,17.01
2022-07-28T07:39:51.417Z,17.09
2022-07-28T07:40:50.099Z,17.08
2022-07-28T07:41:50.284Z,17.01
2022-07-28T07:42:48.961Z,17.01
2022-07-28T07:43:50.149Z,17.19
2022-07-28T07:44:50.404Z,17.20
2022-07-28T07:45:49.789Z,17.19
2022-07-28T07:46:51.018Z,17.09
2022-07-28T07:47:50.278Z,16.93
2022-07-28T07:48:50.592Z,16.96
2022-07-28T07:49:52.722Z,17.08
2022-07-28T07:50:54.247Z,17.12
2022-07-28T07:51:51.383Z,17.09
2022-07-28T07:52:53.562Z,17.08
2022-07-28T07:53:53.722Z,17.23
2022-07-28T07:54:53.925Z,17.45
2022-07-28T07:55:54.091Z,17.60
2022-07-28T07:56:54.775Z,17.72
2022-07-28T07:57:54.964Z,17.90
2022-07-28T07:58:57.230Z,18.15
2022-07-28T07:59:53.664Z,18.23
2022-07-28T08:00:55.849Z,18.26
2022-07-28T08:01:54.294Z,18.25
2022-07-28T08:02:56.334Z,17.90
2022-07-28T08:03:54.771Z,17.92
2022-07-28T08:04:55.139Z,17.92
2022-07-28T08:05:57.492Z,17.98
2022-07-28T08:06:55.674Z,18.20
2022-07-28T08:07:57.875Z,18.20
2022-07-28T08:08:56.158Z,18.16
2022-07-28T08:09:56.398Z,17.95
2022-07-28T08:10:56.634Z,17.68
2022-07-28T08:11:56.880Z,17.67
2022-07-28T08:12:59.062Z,17.89
2022-07-28T08:13:57.381Z,17.79
2022-07-28T08:14:57.607Z,17.74
2022-07-28T08:15:57.902Z,17.79
2022-07-28T08:16:58.097Z,17.67
2022-07-28T08:17:58.341Z,17.76
2022-07-28T08:19:00.518Z,17.80
2022-07-28T08:19:58.834Z,17.94
2022-07-28T08:21:00.983Z,18.15
2022-07-28T08:22:01.459Z,18.22
2022-07-28T08:22:59.728Z,18.38
2022-07-28T08:24:01.924Z,18.58
2022-07-28T08:25:00.225Z,18.60
2022-07-28T08:26:00.467Z,18.53
2022-07-28T08:27:02.761Z,18.56
2022-07-28T08:28:00.946Z,18.78
2022-07-28T08:29:03.189Z,18.99
2022-07-28T08:30:01.515Z,18.74
2022-07-28T08:31:01.817Z,18.75
2022-07-28T08:32:03.913Z,18.74
2022-07-28T08:33:02.337Z,18.65
2022-07-28T08:34:04.516Z,18.78
2022-07-28T08:35:30.396Z,18.66
2022-07-28T08:36:04.127Z,18.63
2022-07-28T08:37:05.385Z,18.98
2022-07-28T08:38:05.504Z,19.34
2022-07-28T08:39:05.668Z,19.59
2022-07-28T08:40:05.870Z,19.69
2022-07-28T08:41:04.608Z,19.89
2022-07-28T08:42:06.935Z,19.91
2022-07-28T08:43:05.114Z,19.77
2022-07-28T08:44:07.313Z,19.40
2022-07-28T08:45:05.624Z,19.45
2022-07-28T08:46:05.896Z,19.19
2022-07-28T08:47:06.980Z,18.77
2022-07-28T08:48:08.600Z,18.96
2022-07-28T08:49:06.706Z,19.19
2022-07-28T08:50:08.869Z,19.37
2022-07-28T08:51:07.174Z,19.19
2022-07-28T08:52:08.294Z,18.78
2022-07-28T08:53:07.974Z,19.00
2022-07-28T08:54:09.897Z,19.33
2022-07-28T08:55:10.079Z,19.63
2022-07-28T08:56:08.642Z,19.59
2022-07-28T08:57:10.884Z,19.39
2022-07-28T08:58:09.199Z,19.02
2022-07-28T08:59:11.380Z,19.09
2022-07-28T09:00:11.570Z,19.24
2022-07-28T09:01:10.004Z,19.36
2022-07-28T09:02:12.206Z,19.59
2022-07-28T09:03:10.609Z,19.64
2022-07-28T09:04:13.020Z,19.70
2022-07-28T09:05:11.069Z,19.84
2022-07-28T09:06:12.256Z,19.66
2022-07-28T09:07:13.461Z,19.70
2022-07-28T09:08:13.633Z,19.69
2022-07-28T09:09:12.311Z,19.52
2022-07-28T09:10:12.551Z,19.49
2022-07-28T09:11:14.750Z,19.59
2022-07-28T09:12:13.059Z,19.73
2022-07-28T09:13:13.617Z,19.79
2022-07-28T09:14:13.901Z,19.82
2022-07-28T09:15:13.801Z,19.73
2022-07-28T09:16:16.009Z,19.56
2022-07-28T09:17:18.127Z,19.33
2022-07-28T09:18:14.587Z,19.37
2022-07-28T09:19:14.884Z,19.45
2022-07-28T09:20:15.126Z,19.18
2022-07-28T09:21:15.354Z,19.07
2022-07-28T09:22:17.537Z,19.22
2022-07-28T09:23:42.104Z,19.40
2022-07-28T09:24:17.432Z,19.77
2022-07-28T09:25:18.260Z,20.00
2022-07-28T09:26:16.697Z,20.26
2022-07-28T09:27:18.908Z,20.59
2022-07-28T09:28:17.220Z,21.29
2022-07-28T09:29:17.510Z,21.35
2022-07-28T09:30:21.161Z,20.96
2022-07-28T09:31:18.905Z,20.99
2022-07-28T09:32:21.691Z,20.74
2022-07-28T09:33:41.167Z,20.82
2022-07-28T09:34:19.878Z,20.87
2022-07-28T09:35:19.679Z,21.09
2022-07-28T09:36:20.454Z,21.33
2022-07-28T09:37:26.845Z,21.55
2022-07-28T09:38:20.977Z,21.50
2022-07-28T09:39:20.270Z,21.50
2022-07-28T09:40:22.713Z,21.50
2022-07-28T09:41:22.639Z,21.07
2022-07-28T09:42:21.077Z,20.21
2022-07-28T09:43:21.312Z,20.03
2022-07-28T09:44:21.559Z,20.11
2022-07-28T09:45:24.778Z,19.95
2022-07-28T09:46:22.173Z,19.71
2022-07-28T09:47:22.435Z,19.71
2022-07-28T09:48:22.808Z,19.85
2022-07-28T09:49:28.620Z,20.19
2022-07-28T09:50:23.071Z,20.32
2022-07-28T09:51:23.312Z,20.32
2022-07-28T09:52:24.518Z,20.44
2022-07-28T09:53:23.815Z,20.63
2022-07-28T09:54:25.986Z,20.92
2022-07-28T09:55:24.427Z,20.85
2022-07-28T09:56:27.339Z,20.44
2022-07-28T09:57:24.905Z,20.60
2022-07-28T09:58:26.658Z,20.96
2022-07-28T09:59:28.186Z,21.39
2022-07-28T10:00:25.705Z,21.64
2022-07-28T10:01:33.351Z,21.21
2022-07-28T10:02:29.078Z,21.32
2022-07-28T10:03:27.586Z,20.97
2022-07-28T10:04:28.848Z,20.70
2022-07-28T10:05:28.173Z,20.90
2022-07-28T10:06:29.351Z,20.44
2022-07-28T10:07:30.524Z,20.43
2022-07-28T10:08:28.079Z,20.26
2022-07-28T10:09:29.282Z,20.36
2022-07-28T10:10:28.578Z,20.19
2022-07-28T10:11:28.822Z,20.39
2022-07-28T10:12:31.010Z,20.60
2022-07-28T10:13:31.165Z,20.72
2022-07-28T10:14:31.344Z,21.21
2022-07-28T10:15:31.642Z,21.15
2022-07-28T10:16:31.794Z,21.48
2022-07-28T10:17:32.417Z,22.02
2022-07-28T10:18:30.727Z,22.54
2022-07-28T10:19:32.916Z,22.83
2022-07-28T10:20:33.100Z,22.96
2022-07-28T10:21:33.536Z,22.51
2022-07-28T10:22:33.517Z,22.65
2022-07-28T10:23:33.627Z,22.44
2022-07-28T10:24:32.308Z,22.10
2022-07-28T10:25:32.546Z,22.15
2022-07-28T10:26:34.851Z,22.15
2022-07-28T10:27:34.937Z,22.18
2022-07-28T10:28:38.179Z,21.99
2022-07-28T10:29:34.682Z,22.25
2022-07-28T10:30:34.035Z,22.15
2022-07-28T10:31:36.172Z,22.47
2022-07-28T10:32:36.027Z,23.08
2022-07-28T10:33:36.705Z,22.60
2022-07-28T10:34:35.017Z,22.65
2022-07-28T10:35:54.636Z,22.87
2022-07-28T10:36:37.483Z,23.40
2022-07-28T10:37:35.801Z,23.76
2022-07-28T10:38:37.972Z,23.95
2022-07-28T10:39:36.295Z,23.59
2022-07-28T10:40:38.525Z,23.81
2022-07-28T10:41:38.815Z,23.77
2022-07-28T10:42:37.121Z,22.91
2022-07-28T10:43:42.779Z,23.18
2022-07-28T10:44:39.494Z,23.56
2022-07-28T10:46:03.151Z,23.59
2022-07-28T10:46:40.203Z,23.73
2022-07-28T10:47:38.474Z,23.10
2022-07-28T10:48:40.703Z,22.32
2022-07-28T10:49:40.830Z,22.13
2022-07-28T10:50:39.236Z,21.51
2022-07-28T10:51:59.840Z,20.88
2022-07-28T10:52:48.264Z,20.58
2022-07-28T10:53:43.005Z,20.32
2022-07-28T10:54:42.169Z,20.06
2022-07-28T10:55:42.364Z,19.94
2022-07-28T10:56:41.702Z,19.85
2022-07-28T10:57:41.160Z,19.63
2022-07-28T10:58:41.967Z,19.70
2022-07-28T10:59:43.677Z,19.84
2022-07-28T11:00:55.549Z,19.95
2022-07-28T11:01:48.985Z,19.73
2022-07-28T11:02:43.647Z,19.70
2022-07-28T11:03:43.407Z,19.48
2022-07-28T11:04:45.001Z,19.44
2022-07-28T11:05:43.320Z,19.63
2022-07-28T11:06:43.631Z,19.74
2022-07-28T11:07:43.874Z,19.49
2022-07-28T11:08:44.114Z,19.49
2022-07-28T11:09:44.357Z,19.49
2022-07-28T11:10:46.546Z,19.48
2022-07-28T11:11:45.945Z,19.62
2022-07-28T11:12:46.050Z,19.70
2022-07-28T11:13:45.484Z,19.69
2022-07-28T11:14:45.728Z,19.69
2022-07-28T11:15:47.891Z,19.77
2022-07-28T11:16:48.199Z,19.88
2022-07-28T11:17:46.547Z,19.92
2022-07-28T11:18:46.778Z,19.81
2022-07-28T11:20:16.896Z,19.88
2022-07-28T11:20:50.136Z,20.04
2022-07-28T11:21:52.753Z,20.34
2022-07-28T11:22:47.836Z,20.56
2022-07-28T11:23:48.231Z,20.69
2022-07-28T11:24:48.394Z,20.37
2022-07-28T11:25:48.633Z,20.02
2022-07-28T11:26:50.803Z,19.96
2022-07-28T11:27:49.233Z,20.00
2022-07-28T11:28:49.462Z,20.16
2022-07-28T11:29:49.711Z,20.18
2022-07-28T11:30:50.116Z,20.09
2022-07-28T11:31:52.135Z,20.25
2022-07-28T11:32:50.439Z,20.40
2022-07-28T11:33:50.663Z,20.84
2022-07-28T11:34:50.902Z,21.21
2022-07-28T11:35:53.079Z,21.32
2022-07-28T11:36:53.277Z,20.96
2022-07-28T11:37:51.711Z,20.85
2022-07-28T11:38:51.970Z,21.09
2022-07-28T11:39:52.178Z,21.35
2022-07-28T11:40:54.345Z,21.33
2022-07-28T11:41:53.503Z,21.57
2022-07-28T11:42:56.327Z,21.67
2022-07-28T11:43:53.193Z,21.73
2022-07-28T11:44:57.336Z,22.13
2022-07-28T11:45:57.101Z,22.66
2022-07-28T11:46:55.879Z,22.54
2022-07-28T11:47:54.305Z,22.66
2022-07-28T11:48:55.425Z,22.54
2022-07-28T11:49:56.730Z,22.26
2022-07-28T11:50:57.138Z,22.14
2022-07-28T11:51:59.360Z,21.61
2022-07-28T11:52:56.547Z,21.11
2022-07-28T11:53:56.969Z,21.14
2022-07-28T11:54:56.258Z,20.90
2022-07-28T11:56:02.929Z,20.88
2022-07-28T11:57:00.619Z,20.34
2022-07-28T11:57:57.071Z,19.95
2022-07-28T11:58:57.307Z,19.88
2022-07-28T11:59:57.553Z,20.24
2022-07-28T12:00:57.787Z,20.40
2022-07-28T12:02:01.099Z,20.81
2022-07-28T12:02:59.169Z,20.81
2022-07-28T12:03:59.748Z,20.84
2022-07-28T12:04:58.938Z,20.77
2022-07-28T12:06:01.098Z,21.07
2022-07-28T12:06:59.424Z,21.52
2022-07-28T12:08:00.483Z,22.18
2022-07-28T12:09:00.904Z,21.99
2022-07-28T12:10:01.057Z,21.07
2022-07-28T12:11:01.484Z,20.44
2022-07-28T12:12:01.636Z,20.28
2022-07-28T12:13:01.076Z,20.26
2022-07-28T12:14:01.319Z,20.24
2022-07-28T12:15:06.715Z,20.16
2022-07-28T12:16:04.750Z,20.16
2022-07-28T12:17:04.104Z,20.18
2022-07-28T12:18:02.345Z,20.13
2022-07-28T12:19:02.640Z,20.10
2022-07-28T12:20:02.838Z,20.04
2022-07-28T12:21:05.217Z,19.92
2022-07-28T12:22:06.333Z,20.02
2022-07-28T12:23:03.636Z,20.19
2022-07-28T12:24:03.886Z,20.63
2022-07-28T12:25:04.182Z,21.12
2022-07-28T12:26:05.428Z,21.61
2022-07-28T12:27:08.572Z,21.95
2022-07-28T12:28:06.783Z,22.39
2022-07-28T12:29:08.621Z,22.73
2022-07-28T12:30:06.570Z,22.96
2022-07-28T12:31:05.878Z,23.02
2022-07-28T12:32:10.599Z,22.88
2022-07-28T12:33:08.256Z,22.59
2022-07-28T12:34:06.702Z,22.69
2022-07-28T12:35:08.902Z,22.60
2022-07-28T12:36:07.235Z,22.78
2022-07-28T12:37:09.551Z,22.36
2022-07-28T12:38:07.781Z,22.18
2022-07-28T12:39:12.822Z,22.23
2022-07-28T12:40:09.289Z,22.11
2022-07-28T12:41:10.470Z,22.18
2022-07-28T12:42:10.788Z,22.10
2022-07-28T12:43:09.255Z,21.85
2022-07-28T12:44:11.721Z,21.69
2022-07-28T12:45:09.747Z,21.88
2022-07-28T12:46:11.974Z,22.28
2022-07-28T12:47:14.152Z,22.45
2022-07-28T12:48:10.625Z,22.47
2022-07-28T12:49:12.974Z,22.62
2022-07-28T12:50:12.988Z,22.59
2022-07-28T12:51:13.147Z,22.29
2022-07-28T12:52:13.329Z,22.25
2022-07-28T12:53:14.005Z,22.15
2022-07-28T12:54:14.476Z,21.89
2022-07-28T12:55:12.598Z,21.52
2022-07-28T12:56:14.791Z,22.08
2022-07-28T12:57:16.952Z,22.43
2022-07-28T12:58:15.173Z,22.80
2022-07-28T12:59:15.361Z,22.72